createdAt,value
2019-03-27T00:00:37.630Z,98353.60
2019-03-27T00:03:45.312Z,98348.08
2019-03-27T00:06:53.016Z,98346.81
2019-03-27T00:10:00.784Z,98344.70
2019-03-27T00:13:08.689Z,98347.19
2019-03-27T00:16:16.354Z,98349.35
2019-03-27T00:19:24.346Z,98345.94
2019-03-27T00:22:32.092Z,98344.59
2019-03-27T00:25:39.840Z,98339.47
2019-03-27T00:28:47.535Z,98340.33
2019-03-27T00:31:55.257Z,98346.67
2019-03-27T00:35:04.417Z,98345.38
2019-03-27T00:38:12.295Z,98351.24
2019-03-27T00:41:19.948Z,98345.33
2019-03-27T00:44:27.806Z,98346.15
2019-03-27T00:47:35.498Z,98351.17
2019-03-27T00:50:44.324Z,98345.29
2019-03-27T00:53:52.062Z,98349.91
2019-03-27T00:57:01.464Z,98350.38
2019-03-27T01:00:15.300Z,98352.84
2019-03-27T01:03:22.993Z,98354.09
2019-03-27T01:06:30.787Z,98368.45
2019-03-27T01:09:38.840Z,98367.63
2019-03-27T01:12:46.524Z,98367.63
2019-03-27T01:15:54.598Z,98377.28
2019-03-27T01:19:02.320Z,98378.09
2019-03-27T01:22:10.018Z,98372.49
2019-03-27T01:25:17.805Z,98367.44
2019-03-27T01:28:25.601Z,98366.53
2019-03-27T01:31:34.505Z,98369.16
2019-03-27T01:34:43.713Z,98362.84
2019-03-27T01:37:51.522Z,98371.70
2019-03-27T01:41:00.442Z,98373.80
2019-03-27T01:44:08.197Z,98371.60
2019-03-27T01:47:15.898Z,98375.80
2019-03-27T01:50:23.589Z,98378.42
2019-03-27T01:53:31.306Z,98378.41
2019-03-27T01:56:39.019Z,98371.14
2019-03-27T01:59:47.087Z,98371.47
2019-03-27T02:02:54.757Z,98369.13
2019-03-27T02:06:02.675Z,98369.66
2019-03-27T02:09:10.653Z,98367.22
2019-03-27T02:12:18.332Z,98374.48
2019-03-27T02:15:26.375Z,98379.11
2019-03-27T02:18:34.144Z,98382.63
2019-03-27T02:21:41.870Z,98376.75
2019-03-27T02:24:49.600Z,98381.84
2019-03-27T02:27:57.377Z,98384.41
2019-03-27T02:31:05.088Z,98387.87
2019-03-27T02:34:12.754Z,98383.67
2019-03-27T02:37:20.679Z,98388.16
2019-03-27T02:40:28.328Z,98391.13
2019-03-27T02:43:36.226Z,98389.86
2019-03-27T02:46:43.990Z,98396.98
2019-03-27T02:49:51.832Z,98404.12
2019-03-27T02:52:59.512Z,98404.77
2019-03-27T02:56:11.738Z,98399.91
2019-03-27T02:59:29.135Z,98397.76
2019-03-27T03:02:38.568Z,98402.38
2019-03-27T03:05:48.565Z,98405.09
2019-03-27T03:08:59.232Z,98400.74
2019-03-27T03:12:08.812Z,98402.06
2019-03-27T03:15:25.638Z,98403.89
2019-03-27T03:18:35.052Z,98402.58
2019-03-27T03:21:42.834Z,98403.94
2019-03-27T03:24:50.720Z,98398.79
2019-03-27T03:27:58.779Z,98401.79
2019-03-27T03:31:06.433Z,98406.34
2019-03-27T03:34:14.167Z,98398.65
2019-03-27T03:37:22.139Z,98401.26
2019-03-27T03:40:29.836Z,98403.79
2019-03-27T03:43:37.489Z,98397.08
2019-03-27T03:46:58.911Z,98407.32
2019-03-27T03:49:54.755Z,98405.58
2019-03-27T03:53:02.539Z,98413.52
2019-03-27T03:56:11.215Z,98417.79
2019-03-27T03:59:20.574Z,98419.88
2019-03-27T04:02:30.407Z,98422.42
2019-03-27T04:05:39.354Z,98420.33
2019-03-27T04:08:47.238Z,98424.58
2019-03-27T04:11:54.941Z,98421.63
2019-03-27T04:15:02.606Z,98426.67
2019-03-27T04:18:10.441Z,98428.51
2019-03-27T04:21:18.574Z,98431.48
2019-03-27T04:24:26.265Z,98430.94
2019-03-27T04:27:33.919Z,98433.06
2019-03-27T04:30:41.652Z,98431.67
2019-03-27T04:33:49.233Z,98431.66
2019-03-27T04:36:57.015Z,98437.91
2019-03-27T04:40:05.000Z,98443.34
2019-03-27T04:43:13.337Z,98444.58
2019-03-27T04:46:21.111Z,98444.56
2019-03-27T04:49:28.725Z,98445.52
2019-03-27T04:52:36.500Z,98442.14
2019-03-27T04:55:44.321Z,98450.62
2019-03-27T04:58:51.916Z,98449.40
2019-03-27T05:01:59.627Z,98451.95
2019-03-27T05:05:08.107Z,98452.90
2019-03-27T05:08:17.221Z,98448.17
2019-03-27T05:11:24.925Z,98451.60
2019-03-27T05:14:32.839Z,98457.53
2019-03-27T05:17:46.187Z,98467.63
2019-03-27T05:20:50.160Z,98460.13
2019-03-27T05:24:01.664Z,98465.17
2019-03-27T05:27:10.202Z,98474.52
2019-03-27T05:30:28.152Z,98486.77
2019-03-27T05:33:35.971Z,98488.04
2019-03-27T05:36:43.795Z,98491.42
2019-03-27T05:39:51.485Z,98492.27
2019-03-27T05:43:00.895Z,98481.67
2019-03-27T05:46:08.773Z,98485.96
2019-03-27T05:49:16.351Z,98496.95
2019-03-27T05:52:25.330Z,98497.74
2019-03-27T05:55:33.051Z,98501.20
2019-03-27T05:58:42.228Z,98504.58
2019-03-27T06:01:50.894Z,98513.48
2019-03-27T06:04:59.387Z,98508.81
2019-03-27T06:08:08.218Z,98512.20
2019-03-27T06:11:18.526Z,98521.09
2019-03-27T06:14:27.695Z,98525.34
2019-03-27T06:17:37.629Z,98525.73
2019-03-27T06:20:46.819Z,98524.88
2019-03-27T06:23:56.397Z,98523.22
2019-03-27T06:27:07.341Z,98525.40
2019-03-27T06:30:18.173Z,98537.62
2019-03-27T06:33:27.219Z,98537.18
2019-03-27T06:36:36.232Z,98539.73
2019-03-27T06:39:45.054Z,98538.85
2019-03-27T06:42:54.021Z,98547.39
2019-03-27T06:46:02.809Z,98544.89
2019-03-27T06:49:11.749Z,98543.14
2019-03-27T06:52:21.115Z,98550.34
2019-03-27T06:55:29.890Z,98552.06
2019-03-27T06:58:38.726Z,98552.50
2019-03-27T07:01:47.670Z,98547.06
2019-03-27T07:04:58.247Z,98553.81
2019-03-27T07:08:08.065Z,98557.58
2019-03-27T07:11:15.787Z,98558.48
2019-03-27T07:14:24.693Z,98563.14
2019-03-27T07:17:33.611Z,98564.42
2019-03-27T07:20:41.390Z,98562.72
2019-03-27T07:23:49.231Z,98568.71
2019-03-27T07:26:56.953Z,98572.98
2019-03-27T07:30:05.279Z,98575.52
2019-03-27T07:33:15.980Z,98576.33
2019-03-27T07:36:23.737Z,98583.20
2019-03-27T07:39:36.507Z,98586.52
2019-03-27T07:42:44.271Z,98586.52
2019-03-27T07:45:51.984Z,98591.61
2019-03-27T07:48:59.645Z,98597.55
2019-03-27T07:52:07.455Z,98598.47
2019-03-27T07:55:19.615Z,98601.47
2019-03-27T07:58:24.710Z,98599.34
2019-03-27T08:01:32.387Z,98607.80
2019-03-27T08:04:40.075Z,98606.53
2019-03-27T08:07:49.160Z,98610.38
2019-03-27T08:11:00.120Z,98609.97
2019-03-27T08:14:07.850Z,98615.05
2019-03-27T08:17:22.376Z,98616.31
2019-03-27T08:20:31.753Z,98616.77
2019-03-27T08:23:39.681Z,98621.90
2019-03-27T08:26:47.342Z,98626.12
2019-03-27T08:29:56.133Z,98625.32
2019-03-27T08:33:03.977Z,98621.11
2019-03-27T08:36:11.671Z,98624.11
2019-03-27T08:39:19.304Z,98621.54
2019-03-27T08:42:27.016Z,98623.25
2019-03-27T08:45:34.706Z,98623.69
2019-03-27T08:48:42.391Z,98622.06
2019-03-27T08:51:50.028Z,98623.36
2019-03-27T08:54:57.837Z,98624.23
2019-03-27T08:58:05.498Z,98624.23
2019-03-27T09:01:13.206Z,98626.39
2019-03-27T09:04:20.860Z,98625.19
2019-03-27T09:07:28.655Z,98627.77
2019-03-27T09:10:36.323Z,98628.64
2019-03-27T09:13:44.101Z,98626.17
2019-03-27T09:16:51.864Z,98619.02
2019-03-27T09:20:00.703Z,98624.62
2019-03-27T09:23:08.397Z,98615.29
2019-03-27T09:26:16.098Z,98621.28
2019-03-27T09:29:23.798Z,98613.75
2019-03-27T09:32:31.654Z,98619.69
2019-03-27T09:35:39.922Z,98622.66
2019-03-27T09:38:47.839Z,98629.06
2019-03-27T09:41:55.501Z,98625.25
2019-03-27T09:45:03.195Z,98622.36
2019-03-27T09:48:10.916Z,98628.26
2019-03-27T09:51:18.693Z,98629.13
2019-03-27T09:54:27.423Z,98631.28
2019-03-27T09:57:35.144Z,98632.22
2019-03-27T10:01:10.991Z,98627.95
2019-03-27T10:04:18.695Z,98626.31
2019-03-27T10:07:27.513Z,98628.00
2019-03-27T10:10:35.375Z,98629.72
2019-03-27T10:13:43.074Z,98634.80
2019-03-27T10:16:50.786Z,98630.56
2019-03-27T10:20:03.736Z,98631.84
2019-03-27T10:23:08.384Z,98634.39
2019-03-27T10:26:16.227Z,98635.22
2019-03-27T10:29:25.556Z,98631.84
2019-03-27T10:32:33.145Z,98633.12
2019-03-27T10:35:40.900Z,98630.16
2019-03-27T10:38:48.528Z,98622.52
2019-03-27T10:41:56.240Z,98628.47
2019-03-27T10:45:04.033Z,98631.84
2019-03-27T10:48:11.797Z,98640.77
2019-03-27T10:51:19.552Z,98630.15
2019-03-27T10:54:27.228Z,98640.76
2019-03-27T10:57:36.172Z,98649.66
2019-03-27T11:00:43.874Z,98648.39
2019-03-27T11:03:54.606Z,98656.91
2019-03-27T11:07:02.395Z,98658.60
2019-03-27T11:10:10.460Z,98653.92
2019-03-27T11:13:18.177Z,98654.37
2019-03-27T11:16:25.836Z,98655.64
2019-03-27T11:19:33.865Z,98657.77
2019-03-27T11:22:41.530Z,98658.19
2019-03-27T11:25:50.141Z,98658.60
2019-03-27T11:28:57.799Z,98659.46
2019-03-27T11:32:05.501Z,98659.46
2019-03-27T11:35:13.346Z,98667.93
2019-03-27T11:38:21.187Z,98664.97
2019-03-27T11:41:28.980Z,98658.60
2019-03-27T11:44:39.910Z,98659.87
2019-03-27T11:47:47.928Z,98660.73
2019-03-27T11:50:57.863Z,98659.45
2019-03-27T11:54:05.339Z,98660.73
2019-03-27T11:57:13.184Z,98653.09
2019-03-27T12:00:21.403Z,98653.92
2019-03-27T12:03:29.159Z,98658.60
2019-03-27T12:06:36.874Z,98659.02
2019-03-27T12:09:44.664Z,98661.56
2019-03-27T12:12:52.317Z,98656.05
2019-03-27T12:16:00.042Z,98662.42
2019-03-27T12:19:07.818Z,98658.59
2019-03-27T12:22:15.493Z,98661.14
2019-03-27T12:25:23.137Z,98661.14
2019-03-27T12:28:31.233Z,98657.72
2019-03-27T12:31:38.963Z,98661.13
2019-03-27T12:34:48.619Z,98664.09
2019-03-27T12:37:56.346Z,98661.56
2019-03-27T12:41:04.084Z,98666.23
2019-03-27T12:44:11.864Z,98664.95
2019-03-27T12:47:19.854Z,98665.38
2019-03-27T12:50:27.596Z,98657.72
2019-03-27T12:53:38.295Z,98656.84
2019-03-27T12:56:46.022Z,98654.70
2019-03-27T12:59:53.744Z,98657.70
2019-03-27T13:03:01.412Z,98656.86
2019-03-27T13:06:09.183Z,98654.77
2019-03-27T13:09:16.808Z,98657.72
2019-03-27T13:12:24.726Z,98651.73
2019-03-27T13:15:32.546Z,98647.88
2019-03-27T13:18:43.011Z,98653.75
2019-03-27T13:21:50.776Z,98653.84
2019-03-27T13:24:58.508Z,98652.53
2019-03-27T13:28:06.306Z,98640.59
2019-03-27T13:31:14.182Z,98643.16
2019-03-27T13:34:21.889Z,98642.37
2019-03-27T13:37:31.420Z,98646.98
2019-03-27T13:40:41.712Z,98643.16
2019-03-27T13:43:49.543Z,98638.11
2019-03-27T13:46:57.319Z,98646.18
2019-03-27T13:50:07.100Z,98641.89
2019-03-27T13:53:14.885Z,98643.56
2019-03-27T13:56:22.612Z,98635.47
2019-03-27T13:59:30.280Z,98638.03
2019-03-27T14:02:38.113Z,98636.37
2019-03-27T14:05:45.810Z,98635.91
2019-03-27T14:08:53.635Z,98626.16
2019-03-27T14:12:01.307Z,98625.71
2019-03-27T14:15:11.961Z,98611.69
2019-03-27T14:18:19.901Z,98619.80
2019-03-27T14:21:27.925Z,98616.41
2019-03-27T14:24:35.635Z,98614.72
2019-03-27T14:27:45.500Z,98611.69
2019-03-27T14:30:58.693Z,98610.33
2019-03-27T14:34:06.900Z,98608.58
2019-03-27T14:37:14.723Z,98610.32
2019-03-27T14:40:23.559Z,98605.20
2019-03-27T14:43:31.297Z,98604.78
2019-03-27T14:46:40.323Z,98614.95
2019-03-27T14:49:48.025Z,98602.62
2019-03-27T14:52:55.752Z,98608.05
2019-03-27T14:56:06.594Z,98605.95
2019-03-27T14:59:16.097Z,98603.86
2019-03-27T15:02:23.782Z,98603.42
2019-03-27T15:05:34.523Z,98599.89
2019-03-27T15:08:41.265Z,98606.35
2019-03-27T15:11:48.976Z,98603.19
2019-03-27T15:14:56.639Z,98603.95
2019-03-27T15:18:05.388Z,98599.84
2019-03-27T15:21:13.153Z,98605.09
2019-03-27T15:24:21.776Z,98605.63
2019-03-27T15:27:29.897Z,98607.84
2019-03-27T15:30:37.751Z,98606.54
2019-03-27T15:33:45.454Z,98599.37
2019-03-27T15:36:53.683Z,98605.33
2019-03-27T15:40:01.340Z,98600.23
2019-03-27T15:43:11.122Z,98607.94
2019-03-27T15:46:18.872Z,98600.70
2019-03-27T15:49:26.792Z,98601.53
2019-03-27T15:52:37.463Z,98606.22
2019-03-27T15:55:45.310Z,98599.89
2019-03-27T15:58:56.269Z,98605.39
2019-03-27T16:02:04.431Z,98599.05
2019-03-27T16:05:12.101Z,98600.72
2019-03-27T16:08:19.904Z,98602.00
2019-03-27T16:11:27.562Z,98600.32
2019-03-27T16:14:39.094Z,98609.28
2019-03-27T16:17:49.824Z,98599.08
2019-03-27T16:21:00.409Z,98603.35
2019-03-27T16:24:08.448Z,98610.18
2019-03-27T16:27:16.152Z,98614.04
2019-03-27T16:30:23.852Z,98609.38
2019-03-27T16:33:34.463Z,98617.92
2019-03-27T16:36:42.169Z,98614.06
2019-03-27T16:39:50.110Z,98611.94
2019-03-27T16:42:58.860Z,98612.38
2019-03-27T16:46:06.540Z,98619.99
2019-03-27T16:49:15.437Z,98619.16
2019-03-27T16:52:23.159Z,98623.81
2019-03-27T16:55:36.170Z,98619.56
2019-03-27T16:58:43.871Z,98619.17
2019-03-27T17:01:51.777Z,98616.62
2019-03-27T17:04:59.467Z,98622.63
2019-03-27T17:08:07.186Z,98620.03
2019-03-27T17:11:16.219Z,98623.41
2019-03-27T17:14:24.404Z,98620.77
2019-03-27T17:17:32.214Z,98625.53
2019-03-27T17:20:54.727Z,98639.55
2019-03-27T17:24:05.975Z,98635.37
2019-03-27T17:27:15.346Z,98631.03
2019-03-27T17:30:32.301Z,98638.23
2019-03-27T17:33:44.346Z,98639.66
2019-03-27T17:36:53.613Z,98643.42
2019-03-27T17:40:04.614Z,98642.54
2019-03-27T17:43:18.529Z,98652.30
2019-03-27T17:46:27.835Z,98652.33
2019-03-27T17:49:38.593Z,98658.80
2019-03-27T17:52:49.717Z,98652.45
2019-03-27T17:56:01.592Z,98650.39
2019-03-27T17:59:10.984Z,98658.43
2019-03-27T18:02:18.958Z,98666.45
2019-03-27T18:05:27.989Z,98660.97
2019-03-27T18:08:35.738Z,98670.43
2019-03-27T18:11:43.466Z,98669.16
2019-03-27T18:14:51.198Z,98673.82
2019-03-27T18:17:58.988Z,98674.67
2019-03-27T18:21:06.780Z,98672.13
2019-03-27T18:24:14.483Z,98669.16
2019-03-27T18:27:22.228Z,98672.54
2019-03-27T18:30:31.843Z,98670.45
2019-03-27T18:33:39.666Z,98673.40
2019-03-27T18:36:53.796Z,98676.80
2019-03-27T18:40:05.875Z,98679.79
2019-03-27T18:43:30.473Z,98685.29
2019-03-27T18:46:47.985Z,98691.72
2019-03-27T18:49:56.557Z,98689.56
2019-03-27T18:53:06.643Z,98696.77
2019-03-27T18:56:18.244Z,98691.66
2019-03-27T18:59:26.998Z,98693.80
2019-03-27T19:02:38.692Z,98707.42
2019-03-27T19:05:51.188Z,98696.81
2019-03-27T19:09:00.081Z,98703.61
2019-03-27T19:12:13.309Z,98703.19
2019-03-27T19:15:21.107Z,98704.02
2019-03-27T19:18:28.948Z,98702.78
2019-03-27T19:21:36.698Z,98704.05
2019-03-27T19:24:44.443Z,98710.41
2019-03-27T19:27:52.214Z,98713.37
2019-03-27T19:31:00.061Z,98707.88
2019-03-27T19:34:07.852Z,98702.33
2019-03-27T19:37:15.936Z,98705.33
2019-03-27T19:40:24.262Z,98701.92
2019-03-27T19:43:32.074Z,98705.33
2019-03-27T19:46:39.939Z,98712.09
2019-03-27T19:49:47.892Z,98710.41
2019-03-27T19:52:55.727Z,98704.47
2019-03-27T19:56:04.084Z,98712.95
2019-03-27T19:59:12.005Z,98711.65
2019-03-27T20:02:21.083Z,98711.67
2019-03-27T20:05:29.030Z,98711.63
2019-03-27T20:08:37.230Z,98710.76
2019-03-27T20:11:45.104Z,98711.66
2019-03-27T20:14:52.980Z,98718.46
2019-03-27T20:18:00.942Z,98719.67
2019-03-27T20:21:09.988Z,98723.14
2019-03-27T20:24:17.917Z,98727.81
2019-03-27T20:27:27.207Z,98726.11
2019-03-27T20:30:36.768Z,98718.06
2019-03-27T20:33:44.745Z,98716.33
2019-03-27T20:36:53.541Z,98719.33
2019-03-27T20:40:01.410Z,98718.44
2019-03-27T20:43:09.910Z,98720.98
2019-03-27T20:46:24.874Z,98724.76
2019-03-27T20:49:28.876Z,98718.86
2019-03-27T20:52:36.676Z,98717.95
2019-03-27T20:55:44.460Z,98713.72
2019-03-27T20:58:52.721Z,98711.63
2019-03-27T21:02:00.672Z,98714.20
2019-03-27T21:05:09.555Z,98715.87
2019-03-27T21:08:19.520Z,98716.27
2019-03-27T21:11:27.388Z,98716.27
2019-03-27T21:14:35.166Z,98714.59
2019-03-27T21:17:43.024Z,98714.59
2019-03-27T21:20:50.880Z,98719.23
2019-03-27T21:23:58.726Z,98728.16
2019-03-27T21:27:09.625Z,98729.89
2019-03-27T21:30:18.336Z,98726.92
2019-03-27T21:33:28.637Z,98735.84
2019-03-27T21:36:36.492Z,98735.39
2019-03-27T21:39:44.329Z,98740.48
2019-03-27T21:42:52.226Z,98743.03
2019-03-27T21:46:00.264Z,98752.36
2019-03-27T21:49:08.107Z,98748.16
2019-03-27T21:52:17.550Z,98757.48
2019-03-27T21:55:25.346Z,98753.22
2019-03-27T21:58:33.105Z,98752.39
2019-03-27T22:01:43.131Z,98757.85
2019-03-27T22:04:50.880Z,98764.67
2019-03-27T22:08:01.074Z,98765.53
2019-03-27T22:11:08.735Z,98766.77
2019-03-27T22:14:18.806Z,98769.31
2019-03-27T22:17:28.766Z,98768.86
2019-03-27T22:20:39.472Z,98774.02
2019-03-27T22:23:46.353Z,98776.56
2019-03-27T22:26:54.995Z,98778.25
2019-03-27T22:30:02.719Z,98776.98
2019-03-27T22:33:11.611Z,98774.02
2019-03-27T22:36:19.499Z,98772.67
2019-03-27T22:39:27.303Z,98771.86
2019-03-27T22:42:35.064Z,98774.86
2019-03-27T22:45:43.434Z,98778.59
2019-03-27T22:48:51.771Z,98779.45
2019-03-27T22:51:59.528Z,98773.06
2019-03-27T22:55:07.554Z,98776.92
2019-03-27T22:58:16.942Z,98769.27
2019-03-27T23:01:25.135Z,98769.30
2019-03-27T23:04:33.131Z,98768.42
2019-03-27T23:07:41.233Z,98764.56
2019-03-27T23:10:50.721Z,98761.62
2019-03-27T23:14:01.487Z,98764.50
2019-03-27T23:17:09.640Z,98762.64
2019-03-27T23:20:20.216Z,98765.31
2019-03-27T23:23:28.244Z,98764.03
2019-03-27T23:26:37.023Z,98769.56
2019-03-27T23:29:44.967Z,98768.34
2019-03-27T23:32:53.925Z,98768.37
2019-03-27T23:36:01.791Z,98768.79
2019-03-27T23:39:10.737Z,98769.56
2019-03-27T23:42:18.545Z,98762.75
2019-03-27T23:45:26.976Z,98762.76
2019-03-27T23:48:35.033Z,98763.67
2019-03-27T23:51:43.408Z,98759.05
2019-03-27T23:54:51.279Z,98761.52
2019-03-27T23:57:59.058Z,98762.36
